createdAt,value
2023-03-16T00:00:39.173Z,6.78
2023-03-16T00:03:07.540Z,6.75
2023-03-16T00:05:37.106Z,6.71
2023-03-16T00:08:06.139Z,6.76
2023-03-16T00:10:36.756Z,6.74
2023-03-16T00:13:05.082Z,6.78
2023-03-16T00:15:33.720Z,6.83
2023-03-16T00:18:02.027Z,6.88
2023-03-16T00:20:30.237Z,6.87
2023-03-16T00:22:58.689Z,6.88
2023-03-16T00:25:27.047Z,6.87
2023-03-16T00:27:57.056Z,6.94
2023-03-16T00:30:25.959Z,7.02
2023-03-16T00:32:55.119Z,7.04
2023-03-16T00:35:23.541Z,7.14
2023-03-16T00:37:52.029Z,7.08
2023-03-16T00:40:20.505Z,7.10
2023-03-16T00:42:48.771Z,7.19
2023-03-16T00:45:18.947Z,7.18
2023-03-16T00:47:47.454Z,7.10
2023-03-16T00:50:15.793Z,7.22
2023-03-16T00:52:44.252Z,7.17
2023-03-16T00:55:13.340Z,7.12
2023-03-16T00:57:41.695Z,7.12
2023-03-16T01:00:13.493Z,7.17
2023-03-16T01:02:45.390Z,7.16
2023-03-16T01:05:14.548Z,7.13
2023-03-16T01:07:45.321Z,7.08
2023-03-16T01:10:16.124Z,7.18
2023-03-16T01:12:45.505Z,7.15
2023-03-16T01:15:14.054Z,7.15
2023-03-16T01:17:43.887Z,7.12
2023-03-16T01:20:15.071Z,7.17
2023-03-16T01:22:43.542Z,7.00
2023-03-16T01:25:13.628Z,7.03
2023-03-16T01:27:42.352Z,7.09
2023-03-16T01:30:13.104Z,7.06
2023-03-16T01:32:41.827Z,7.16
2023-03-16T01:35:11.981Z,7.17
2023-03-16T01:37:40.294Z,7.16
2023-03-16T01:40:11.770Z,7.14
2023-03-16T01:42:49.356Z,7.13
2023-03-16T01:45:54.520Z,7.17
2023-03-16T01:48:25.824Z,7.14
2023-03-16T01:50:56.937Z,7.07
2023-03-16T01:53:27.212Z,7.10
2023-03-16T01:55:56.209Z,7.17
2023-03-16T01:58:25.113Z,7.10
2023-03-16T02:00:54.079Z,7.09
2023-03-16T02:03:24.183Z,7.07
2023-03-16T02:05:59.210Z,7.07
2023-03-16T02:08:29.349Z,7.05
2023-03-16T02:10:58.640Z,7.06
2023-03-16T02:13:29.801Z,7.04
2023-03-16T02:15:58.498Z,6.95
2023-03-16T02:18:28.807Z,6.91
2023-03-16T02:21:08.667Z,6.95
2023-03-16T02:23:37.084Z,6.90
2023-03-16T02:26:13.688Z,6.88
2023-03-16T02:28:51.575Z,6.87
2023-03-16T02:31:22.691Z,6.85
2023-03-16T02:33:52.149Z,6.85
2023-03-16T02:36:21.152Z,6.87
2023-03-16T02:38:49.777Z,6.87
2023-03-16T02:41:19.892Z,6.91
2023-03-16T02:43:53.703Z,6.91
2023-03-16T02:46:26.835Z,6.95
2023-03-16T02:49:03.179Z,6.95
2023-03-16T02:51:32.455Z,6.94
2023-03-16T02:54:00.800Z,7.08
2023-03-16T02:56:29.349Z,7.12
2023-03-16T02:58:57.996Z,7.13
2023-03-16T03:01:27.800Z,7.12
2023-03-16T03:03:56.246Z,7.07
2023-03-16T03:06:26.331Z,7.10
2023-03-16T03:08:54.655Z,7.06
2023-03-16T03:11:23.125Z,7.09
2023-03-16T03:13:51.822Z,7.05
2023-03-16T03:16:20.274Z,7.10
2023-03-16T03:18:50.477Z,7.09
2023-03-16T03:21:18.848Z,7.20
2023-03-16T03:23:47.459Z,7.15
2023-03-16T03:26:16.084Z,7.21
2023-03-16T03:28:45.750Z,7.24
2023-03-16T03:31:16.226Z,7.25
2023-03-16T03:33:44.609Z,7.24
2023-03-16T03:36:14.724Z,7.21
2023-03-16T03:38:43.601Z,7.15
2023-03-16T03:41:12.017Z,7.34
2023-03-16T03:43:41.106Z,7.29
2023-03-16T03:46:09.715Z,7.23
2023-03-16T03:48:38.442Z,7.20
2023-03-16T03:51:07.136Z,7.21
2023-03-16T03:53:37.455Z,7.16
2023-03-16T03:56:06.068Z,7.17
2023-03-16T03:58:34.617Z,7.21
2023-03-16T04:01:03.185Z,7.22
2023-03-16T04:03:31.677Z,7.18
2023-03-16T04:06:00.417Z,7.21
2023-03-16T04:08:29.574Z,7.25
2023-03-16T04:10:59.566Z,7.35
2023-03-16T04:13:27.949Z,7.28
2023-03-16T04:15:59.136Z,7.25
2023-03-16T04:18:27.722Z,7.23
2023-03-16T04:20:56.522Z,7.21
2023-03-16T04:23:26.237Z,7.27
2023-03-16T04:25:54.985Z,7.23
2023-03-16T04:28:26.572Z,7.22
2023-03-16T04:30:55.208Z,7.23
2023-03-16T04:33:23.945Z,7.30
2023-03-16T04:35:52.716Z,7.25
2023-03-16T04:38:21.371Z,7.20
2023-03-16T04:40:49.866Z,7.23
2023-03-16T04:43:18.646Z,7.25
2023-03-16T04:45:48.622Z,7.34
2023-03-16T04:48:17.110Z,7.25
2023-03-16T04:50:45.723Z,7.24
2023-03-16T04:53:14.288Z,7.35
2023-03-16T04:55:44.547Z,7.34
2023-03-16T04:58:13.778Z,7.32
2023-03-16T05:00:44.572Z,7.26
2023-03-16T05:03:14.799Z,7.28
2023-03-16T05:05:43.489Z,7.27
2023-03-16T05:08:12.391Z,7.27
2023-03-16T05:10:41.218Z,7.28
2023-03-16T05:13:10.152Z,7.30
2023-03-16T05:15:38.651Z,7.38
2023-03-16T05:18:07.178Z,7.40
2023-03-16T05:20:37.028Z,7.38
2023-03-16T05:23:08.319Z,7.34
2023-03-16T05:25:36.650Z,7.31
2023-03-16T05:28:07.088Z,7.34
2023-03-16T05:30:36.982Z,7.32
2023-03-16T05:33:06.053Z,7.38
2023-03-16T05:35:34.513Z,7.40
2023-03-16T05:38:04.357Z,7.40
2023-03-16T05:40:33.694Z,7.44
2023-03-16T05:43:02.181Z,7.58
2023-03-16T05:45:30.481Z,7.52
2023-03-16T05:47:58.887Z,7.58
2023-03-16T05:50:28.731Z,7.65
2023-03-16T05:52:57.200Z,7.53
2023-03-16T05:55:26.990Z,7.58
2023-03-16T05:57:55.365Z,7.65
2023-03-16T06:00:25.871Z,7.65
2023-03-16T06:02:54.910Z,7.61
2023-03-16T06:05:24.654Z,7.61
2023-03-16T06:07:53.640Z,7.73
2023-03-16T06:10:22.539Z,7.68
2023-03-16T06:12:52.557Z,7.72
2023-03-16T06:15:25.079Z,7.79
2023-03-16T06:17:53.913Z,7.77
2023-03-16T06:20:22.848Z,7.68
2023-03-16T06:22:52.205Z,7.68
2023-03-16T06:25:21.211Z,7.61
2023-03-16T06:27:51.048Z,7.71
2023-03-16T06:30:21.490Z,7.57
2023-03-16T06:32:50.304Z,7.57
2023-03-16T06:35:19.454Z,7.51
2023-03-16T06:37:48.049Z,7.58
2023-03-16T06:40:16.977Z,7.62
2023-03-16T06:42:47.062Z,7.61
2023-03-16T06:45:17.721Z,7.41
2023-03-16T06:47:47.620Z,7.39
2023-03-16T06:50:16.260Z,7.43
2023-03-16T06:52:44.764Z,7.38
2023-03-16T06:55:14.596Z,7.34
2023-03-16T06:57:43.105Z,7.28
2023-03-16T07:00:15.710Z,7.30
2023-03-16T07:02:45.626Z,7.24
2023-03-16T07:05:15.588Z,7.17
2023-03-16T07:07:45.677Z,7.12
2023-03-16T07:10:15.799Z,7.12
2023-03-16T07:12:44.515Z,7.07
2023-03-16T07:15:13.729Z,7.16
2023-03-16T07:17:42.802Z,7.06
2023-03-16T07:20:14.467Z,7.14
2023-03-16T07:22:43.101Z,6.98
2023-03-16T07:25:12.663Z,6.99
2023-03-16T07:27:43.802Z,6.85
2023-03-16T07:30:14.475Z,6.83
2023-03-16T07:32:43.020Z,6.94
2023-03-16T07:35:12.703Z,6.90
2023-03-16T07:37:43.361Z,6.92
2023-03-16T07:40:13.031Z,6.69
2023-03-16T07:42:41.616Z,6.70
2023-03-16T07:45:12.351Z,6.75
2023-03-16T07:47:41.901Z,6.64
2023-03-16T07:50:12.001Z,6.61
2023-03-16T07:52:43.122Z,6.62
2023-03-16T07:55:12.011Z,6.49
2023-03-16T07:57:42.273Z,6.60
2023-03-16T08:00:14.315Z,6.56
2023-03-16T08:02:43.329Z,6.56
2023-03-16T08:05:13.016Z,6.57
2023-03-16T08:07:43.539Z,6.47
2023-03-16T08:10:13.005Z,6.58
2023-03-16T08:12:41.985Z,6.39
2023-03-16T08:15:12.271Z,6.50
2023-03-16T08:17:42.305Z,6.41
2023-03-16T08:20:14.614Z,6.48
2023-03-16T08:22:46.550Z,6.27
2023-03-16T08:25:16.180Z,6.32
2023-03-16T08:27:44.879Z,6.35
2023-03-16T08:30:15.132Z,6.32
2023-03-16T08:32:43.671Z,6.38
2023-03-16T08:35:14.964Z,6.27
2023-03-16T08:37:46.554Z,6.29
2023-03-16T08:40:16.899Z,6.20
2023-03-16T08:42:45.950Z,6.18
2023-03-16T08:45:15.123Z,6.18
2023-03-16T08:47:43.615Z,6.16
2023-03-16T08:50:13.856Z,6.23
2023-03-16T08:52:42.955Z,6.17
2023-03-16T08:55:13.523Z,6.26
2023-03-16T08:57:41.956Z,6.24
2023-03-16T09:00:13.601Z,6.20
2023-03-16T09:02:42.699Z,6.23
2023-03-16T09:05:13.149Z,6.30
2023-03-16T09:07:42.430Z,6.33
2023-03-16T09:10:16.492Z,6.33
2023-03-16T09:12:45.777Z,6.23
2023-03-16T09:15:15.257Z,6.28
2023-03-16T09:17:46.072Z,6.33
2023-03-16T09:20:22.728Z,6.30
2023-03-16T09:22:54.845Z,6.23
2023-03-16T09:25:25.578Z,6.31
2023-03-16T09:27:54.244Z,6.36
2023-03-16T09:30:22.899Z,6.37
2023-03-16T09:32:51.624Z,6.37
2023-03-16T09:35:20.426Z,6.50
2023-03-16T09:38:05.183Z,6.46
2023-03-16T09:40:38.419Z,6.31
2023-03-16T09:43:37.965Z,6.47
2023-03-16T09:46:12.390Z,6.35
2023-03-16T09:48:41.421Z,6.29
2023-03-16T09:51:19.897Z,6.29
2023-03-16T09:53:50.674Z,6.34
2023-03-16T09:56:29.390Z,6.30
2023-03-16T09:58:59.460Z,6.30
2023-03-16T10:01:41.630Z,6.22
2023-03-16T10:04:25.671Z,6.28
2023-03-16T10:07:03.960Z,6.37
2023-03-16T10:09:38.452Z,6.32
2023-03-16T10:12:10.027Z,6.34
2023-03-16T10:14:46.998Z,6.31
2023-03-16T10:17:18.654Z,6.47
2023-03-16T10:19:51.443Z,6.51
2023-03-16T10:22:23.557Z,6.45
2023-03-16T10:25:03.963Z,6.52
2023-03-16T10:27:36.776Z,6.58
2023-03-16T10:30:09.254Z,6.54
2023-03-16T10:32:38.573Z,6.46
2023-03-16T10:35:21.015Z,6.55
2023-03-16T10:37:50.362Z,6.43
2023-03-16T10:40:20.460Z,6.59
2023-03-16T10:42:50.662Z,6.54
2023-03-16T10:45:27.616Z,6.68
2023-03-16T10:48:06.785Z,6.69
2023-03-16T10:50:35.486Z,6.65
2023-03-16T10:53:04.259Z,6.73
2023-03-16T10:55:43.741Z,6.73
2023-03-16T10:58:27.544Z,6.72
2023-03-16T11:00:58.025Z,6.68
2023-03-16T11:03:29.437Z,6.65
2023-03-16T11:06:02.783Z,6.57
2023-03-16T11:08:35.415Z,6.65
2023-03-16T11:11:11.946Z,6.71
2023-03-16T11:13:47.905Z,6.58
2023-03-16T11:16:26.385Z,6.64
2023-03-16T11:18:58.820Z,6.71
2023-03-16T11:21:39.827Z,6.74
2023-03-16T11:24:17.304Z,6.76
2023-03-16T11:26:50.015Z,6.82
2023-03-16T11:29:25.300Z,6.82
2023-03-16T11:31:57.546Z,6.86
2023-03-16T11:34:30.687Z,6.57
2023-03-16T11:37:07.339Z,6.53
2023-03-16T11:39:42.934Z,6.60
2023-03-16T11:42:24.512Z,6.71
2023-03-16T11:44:59.625Z,6.77
2023-03-16T11:47:54.187Z,6.86
2023-03-16T11:50:30.610Z,6.88
2023-03-16T11:53:07.244Z,6.75
2023-03-16T11:55:45.550Z,6.56
2023-03-16T11:58:36.367Z,6.68
2023-03-16T12:01:13.387Z,6.74
2023-03-16T12:03:58.430Z,6.73
2023-03-16T12:06:48.797Z,6.60
2023-03-16T12:09:54.157Z,6.68
2023-03-16T12:12:35.666Z,6.69
2023-03-16T12:15:18.291Z,6.70
2023-03-16T12:17:51.103Z,6.54
2023-03-16T12:20:24.876Z,6.59
2023-03-16T12:22:57.620Z,6.63
2023-03-16T12:25:31.829Z,6.57
2023-03-16T12:28:03.492Z,6.54
2023-03-16T12:30:44.138Z,6.44
2023-03-16T12:33:23.887Z,6.51
2023-03-16T12:36:03.997Z,6.49
2023-03-16T12:38:46.340Z,6.48
2023-03-16T12:41:27.138Z,6.52
2023-03-16T12:44:10.177Z,6.43
2023-03-16T12:46:48.025Z,6.31
2023-03-16T12:49:19.304Z,6.44
2023-03-16T12:51:49.125Z,6.46
2023-03-16T12:54:22.043Z,6.46
2023-03-16T12:56:53.978Z,6.51
2023-03-16T12:59:24.300Z,6.36
2023-03-16T13:01:58.239Z,6.34
2023-03-16T13:04:34.054Z,6.26
2023-03-16T13:07:06.403Z,6.24
2023-03-16T13:09:37.731Z,6.16
2023-03-16T13:12:06.782Z,6.12
2023-03-16T13:14:40.609Z,6.24
2023-03-16T13:17:30.040Z,6.16
2023-03-16T13:20:30.761Z,6.27
2023-03-16T13:23:22.280Z,6.26
2023-03-16T13:26:03.948Z,6.34
2023-03-16T13:28:34.741Z,6.35
2023-03-16T13:31:04.941Z,6.29
2023-03-16T13:33:36.962Z,6.26
2023-03-16T13:36:07.716Z,6.28
2023-03-16T13:38:36.332Z,6.29
2023-03-16T13:41:07.546Z,6.30
2023-03-16T13:43:40.605Z,6.26
2023-03-16T13:46:19.038Z,6.26
2023-03-16T13:48:49.579Z,6.28
2023-03-16T13:51:22.856Z,6.36
2023-03-16T13:53:53.690Z,6.39
2023-03-16T13:56:27.213Z,6.30
2023-03-16T13:58:58.837Z,6.31
2023-03-16T14:01:29.695Z,6.29
2023-03-16T14:04:05.724Z,6.29
2023-03-16T14:06:36.186Z,6.31
2023-03-16T14:09:08.200Z,6.30
2023-03-16T14:11:37.328Z,6.23
2023-03-16T14:14:16.168Z,6.19
2023-03-16T14:16:45.841Z,6.16
2023-03-16T14:19:20.601Z,6.10
2023-03-16T14:21:50.471Z,6.02
2023-03-16T14:24:30.889Z,5.90
2023-03-16T14:27:10.697Z,5.84
2023-03-16T14:29:43.142Z,5.78
2023-03-16T14:32:23.707Z,5.74
2023-03-16T14:34:52.467Z,5.80
2023-03-16T14:37:22.519Z,5.72
2023-03-16T14:40:02.727Z,5.67
2023-03-16T14:42:32.366Z,5.61
2023-03-16T14:45:02.146Z,5.63
2023-03-16T14:47:32.987Z,5.66
2023-03-16T14:50:10.134Z,5.63
2023-03-16T14:52:40.787Z,5.63
2023-03-16T14:55:14.833Z,5.64
2023-03-16T14:57:45.193Z,5.66
2023-03-16T15:00:16.876Z,5.53
2023-03-16T15:02:47.227Z,5.53
2023-03-16T15:05:23.144Z,5.41
2023-03-16T15:07:56.153Z,5.39
2023-03-16T15:10:27.487Z,5.33
2023-03-16T15:13:04.286Z,5.33
2023-03-16T15:15:34.034Z,5.26
2023-03-16T15:18:02.420Z,5.19
2023-03-16T15:20:35.381Z,5.23
2023-03-16T15:23:06.190Z,5.16
2023-03-16T15:25:36.996Z,5.09
2023-03-16T15:28:13.694Z,5.11
2023-03-16T15:30:42.284Z,5.10
2023-03-16T15:33:11.868Z,5.02
2023-03-16T15:35:41.446Z,5.04
2023-03-16T15:38:17.992Z,5.06
2023-03-16T15:40:48.181Z,4.98
2023-03-16T15:43:18.223Z,4.96
2023-03-16T15:45:48.119Z,4.89
2023-03-16T15:48:17.058Z,4.88
2023-03-16T15:50:53.990Z,4.81
2023-03-16T15:53:31.278Z,4.79
2023-03-16T15:56:03.321Z,4.78
2023-03-16T15:58:32.827Z,4.81
2023-03-16T16:01:02.922Z,4.77
2023-03-16T16:03:31.626Z,4.83
2023-03-16T16:05:59.971Z,4.81
2023-03-16T16:08:30.137Z,4.81
2023-03-16T16:11:00.378Z,4.79
2023-03-16T16:13:43.708Z,4.74
2023-03-16T16:16:14.796Z,4.69
2023-03-16T16:18:43.974Z,4.66
2023-03-16T16:21:18.246Z,4.64
2023-03-16T16:23:48.003Z,4.58
2023-03-16T16:26:34.376Z,4.60
2023-03-16T16:29:15.013Z,4.64
2023-03-16T16:31:43.885Z,4.66
2023-03-16T16:34:14.743Z,4.60
2023-03-16T16:36:43.434Z,4.56
2023-03-16T16:39:13.902Z,4.59
2023-03-16T16:41:44.098Z,4.56
2023-03-16T16:44:18.691Z,4.54
2023-03-16T16:46:49.409Z,4.52
2023-03-16T16:49:21.196Z,4.53
2023-03-16T16:51:49.588Z,4.54
2023-03-16T16:54:22.053Z,4.51
2023-03-16T16:56:52.981Z,4.54
2023-03-16T16:59:22.949Z,4.57
2023-03-16T17:01:54.130Z,4.55
2023-03-16T17:04:25.463Z,4.51
2023-03-16T17:06:58.584Z,4.51
2023-03-16T17:09:30.315Z,4.54
2023-03-16T17:12:00.109Z,4.53
2023-03-16T17:14:29.156Z,4.55
2023-03-16T17:16:59.971Z,4.53
2023-03-16T17:19:29.707Z,4.55
2023-03-16T17:21:59.367Z,4.51
2023-03-16T17:24:29.826Z,4.48
2023-03-16T17:27:01.869Z,4.46
2023-03-16T17:29:32.578Z,4.45
2023-03-16T17:32:02.726Z,4.43
2023-03-16T17:34:34.372Z,4.41
2023-03-16T17:37:02.857Z,4.42
2023-03-16T17:39:35.017Z,4.44
2023-03-16T17:42:05.581Z,4.41
2023-03-16T17:44:36.198Z,4.38
2023-03-16T17:47:05.214Z,4.42
2023-03-16T17:49:33.985Z,4.42
2023-03-16T17:52:02.892Z,4.37
2023-03-16T17:54:32.810Z,4.35
2023-03-16T17:57:01.287Z,4.34
2023-03-16T17:59:29.631Z,4.38
2023-03-16T18:01:58.039Z,4.40
2023-03-16T18:04:27.833Z,4.39
2023-03-16T18:06:56.110Z,4.37
2023-03-16T18:09:24.542Z,4.35
2023-03-16T18:11:54.292Z,4.31
2023-03-16T18:14:28.286Z,4.32
2023-03-16T18:16:56.873Z,4.30
2023-03-16T18:19:26.921Z,4.27
2023-03-16T18:21:55.212Z,4.30
2023-03-16T18:24:26.827Z,4.28
2023-03-16T18:26:56.665Z,4.32
2023-03-16T18:29:25.126Z,4.27
2023-03-16T18:31:57.145Z,4.26
2023-03-16T18:34:27.310Z,4.25
2023-03-16T18:36:59.768Z,4.25
2023-03-16T18:39:28.715Z,4.24
2023-03-16T18:41:58.390Z,4.24
2023-03-16T18:44:27.429Z,4.23
2023-03-16T18:47:02.138Z,4.23
2023-03-16T18:49:34.504Z,4.26
2023-03-16T18:52:03.004Z,4.26
2023-03-16T18:54:33.155Z,4.20
2023-03-16T18:57:05.744Z,4.27
2023-03-16T18:59:34.099Z,4.25
2023-03-16T19:02:03.138Z,4.21
2023-03-16T19:04:32.984Z,4.17
2023-03-16T19:07:01.626Z,4.14
2023-03-16T19:09:32.356Z,4.16
2023-03-16T19:12:03.710Z,4.14
2023-03-16T19:14:34.900Z,4.12
2023-03-16T19:17:03.317Z,4.14
2023-03-16T19:19:31.724Z,4.18
2023-03-16T19:22:06.700Z,4.14
2023-03-16T19:24:38.604Z,4.12
2023-03-16T19:27:20.777Z,4.04
2023-03-16T19:29:52.026Z,3.98
2023-03-16T19:32:22.070Z,3.99
2023-03-16T19:34:51.316Z,3.96
2023-03-16T19:37:20.043Z,3.88
2023-03-16T19:39:48.459Z,3.92
2023-03-16T19:42:22.569Z,3.89
2023-03-16T19:44:52.076Z,3.83
2023-03-16T19:47:29.569Z,3.78
2023-03-16T19:49:58.808Z,3.78
2023-03-16T19:52:28.299Z,3.73
2023-03-16T19:54:56.675Z,3.77
2023-03-16T19:57:26.832Z,3.72
2023-03-16T19:59:58.530Z,3.68
2023-03-16T20:02:28.783Z,3.69
2023-03-16T20:04:57.710Z,3.67
2023-03-16T20:07:26.063Z,3.63
2023-03-16T20:09:54.460Z,3.62
2023-03-16T20:12:27.263Z,3.63
2023-03-16T20:14:57.639Z,3.63
2023-03-16T20:17:28.406Z,3.64
2023-03-16T20:19:57.925Z,3.65
2023-03-16T20:22:28.582Z,3.62
2023-03-16T20:24:58.195Z,3.64
2023-03-16T20:27:29.065Z,3.63
2023-03-16T20:29:57.442Z,3.62
2023-03-16T20:32:32.355Z,3.58
2023-03-16T20:35:00.984Z,3.55
2023-03-16T20:37:31.458Z,3.59
2023-03-16T20:40:00.816Z,3.58
2023-03-16T20:42:32.795Z,3.64
2023-03-16T20:45:01.735Z,3.60
2023-03-16T20:47:30.226Z,3.55
2023-03-16T20:49:58.601Z,3.62
2023-03-16T20:52:31.083Z,3.61
2023-03-16T20:54:59.857Z,3.57
2023-03-16T20:57:31.761Z,3.55
2023-03-16T21:00:00.076Z,3.54
2023-03-16T21:02:32.077Z,3.60
2023-03-16T21:05:02.123Z,3.62
2023-03-16T21:07:32.114Z,3.62
2023-03-16T21:10:01.152Z,3.58
2023-03-16T21:12:33.230Z,3.63
2023-03-16T21:15:03.413Z,3.63
2023-03-16T21:17:33.418Z,3.65
2023-03-16T21:20:02.310Z,3.59
2023-03-16T21:22:33.115Z,3.63
2023-03-16T21:25:01.770Z,3.62
2023-03-16T21:27:35.442Z,3.64
2023-03-16T21:30:11.819Z,3.68
2023-03-16T21:32:40.314Z,3.62
2023-03-16T21:35:14.562Z,3.61
2023-03-16T21:37:43.391Z,3.61
2023-03-16T21:40:18.601Z,3.63
2023-03-16T21:42:49.057Z,3.63
2023-03-16T21:45:17.982Z,3.65
2023-03-16T21:47:47.505Z,3.66
2023-03-16T21:50:22.054Z,3.66
2023-03-16T21:52:50.990Z,3.60
2023-03-16T21:55:24.567Z,3.69
2023-03-16T21:57:55.333Z,3.59
2023-03-16T22:00:26.287Z,3.68
2023-03-16T22:02:57.758Z,3.73
2023-03-16T22:05:44.093Z,3.66
2023-03-16T22:08:16.169Z,3.64
2023-03-16T22:10:44.529Z,3.61
2023-03-16T22:13:14.565Z,3.63
2023-03-16T22:15:43.887Z,3.63
2023-03-16T22:18:29.203Z,3.63
2023-03-16T22:20:58.859Z,3.65
2023-03-16T22:23:34.234Z,3.60
2023-03-16T22:26:03.244Z,3.57
2023-03-16T22:28:34.188Z,3.58
2023-03-16T22:31:08.820Z,3.59
2023-03-16T22:33:38.963Z,3.54
2023-03-16T22:36:11.776Z,3.58
2023-03-16T22:38:41.657Z,3.59
2023-03-16T22:41:13.959Z,3.50
2023-03-16T22:43:46.284Z,3.50
2023-03-16T22:46:20.674Z,3.50
2023-03-16T22:48:49.331Z,3.43
2023-03-16T22:51:25.273Z,3.49
2023-03-16T22:53:56.232Z,3.40
2023-03-16T22:56:25.652Z,3.36
2023-03-16T22:58:58.490Z,3.34
2023-03-16T23:01:33.811Z,3.33
2023-03-16T23:04:02.627Z,3.25
2023-03-16T23:06:33.614Z,3.25
2023-03-16T23:09:02.454Z,3.25
2023-03-16T23:11:33.256Z,3.14
2023-03-16T23:14:03.635Z,3.17
2023-03-16T23:16:36.668Z,3.11
2023-03-16T23:19:24.370Z,3.12
2023-03-16T23:21:54.699Z,3.09
2023-03-16T23:24:23.434Z,3.05
2023-03-16T23:26:53.118Z,3.09
2023-03-16T23:29:24.167Z,3.06
2023-03-16T23:31:53.870Z,3.05
2023-03-16T23:34:24.060Z,3.04
2023-03-16T23:36:53.144Z,3.08
2023-03-16T23:39:21.507Z,3.06
2023-03-16T23:41:54.428Z,3.08
2023-03-16T23:44:28.353Z,3.06
2023-03-16T23:46:58.051Z,3.09
2023-03-16T23:49:30.922Z,3.10
2023-03-16T23:52:01.911Z,3.16
2023-03-16T23:54:32.086Z,3.17
2023-03-16T23:57:00.724Z,3.16
2023-03-16T23:59:30.504Z,3.15
